sensor_id;sensor_type;location;lat;lon;timestamp;temperature;humidity
19680;DHT22;9989;48.962;9.182;2023-03-13T00:01:19;9.90;99.90
19680;DHT22;9989;48.962;9.182;2023-03-13T00:03:45;9.90;99.90
19680;DHT22;9989;48.962;9.182;2023-03-13T00:06:11;9.90;99.90
19680;DHT22;9989;48.962;9.182;2023-03-13T00:08:37;9.90;99.90
19680;DHT22;9989;48.962;9.182;2023-03-13T00:11:04;9.90;99.90
19680;DHT22;9989;48.962;9.182;2023-03-13T00:13:30;9.90;99.90
19680;DHT22;9989;48.962;9.182;2023-03-13T00:16:04;9.90;99.90
19680;DHT22;9989;48.962;9.182;2023-03-13T00:18:30;9.90;99.90
19680;DHT22;9989;48.962;9.182;2023-03-13T00:23:24;9.90;99.90
19680;DHT22;9989;48.962;9.182;2023-03-13T00:26:01;9.90;99.90
19680;DHT22;9989;48.962;9.182;2023-03-13T00:28:28;10.00;99.90
19680;DHT22;9989;48.962;9.182;2023-03-13T00:31:08;9.90;99.90
19680;DHT22;9989;48.962;9.182;2023-03-13T00:33:36;9.90;99.90
19680;DHT22;9989;48.962;9.182;2023-03-13T00:36:06;10.00;99.90
19680;DHT22;9989;48.962;9.182;2023-03-13T00:38:33;10.00;99.90
19680;DHT22;9989;48.962;9.182;2023-03-13T00:41:04;10.00;99.90
19680;DHT22;9989;48.962;9.182;2023-03-13T00:43:30;10.00;99.90
19680;DHT22;9989;48.962;9.182;2023-03-13T00:45:56;10.10;99.90
19680;DHT22;9989;48.962;9.182;2023-03-13T00:48:22;10.10;99.90
19680;DHT22;9989;48.962;9.182;2023-03-13T00:50:47;10.20;99.90
19680;DHT22;9989;48.962;9.182;2023-03-13T00:53:13;10.20;99.90
19680;DHT22;9989;48.962;9.182;2023-03-13T00:55:49;10.20;99.90
19680;DHT22;9989;48.962;9.182;2023-03-13T00:58:14;10.20;99.90
19680;DHT22;9989;48.962;9.182;2023-03-13T01:00:40;10.30;99.90
19680;DHT22;9989;48.962;9.182;2023-03-13T01:03:06;10.30;99.90
19680;DHT22;9989;48.962;9.182;2023-03-13T01:05:31;10.30;99.90
19680;DHT22;9989;48.962;9.182;2023-03-13T01:07:57;10.30;99.90
19680;DHT22;9989;48.962;9.182;2023-03-13T01:10:22;10.40;99.90
19680;DHT22;9989;48.962;9.182;2023-03-13T01:12:48;10.30;99.90
19680;DHT22;9989;48.962;9.182;2023-03-13T01:15:13;10.30;99.90
19680;DHT22;9989;48.962;9.182;2023-03-13T01:17:39;10.40;99.90
19680;DHT22;9989;48.962;9.182;2023-03-13T01:20:05;10.40;99.90
19680;DHT22;9989;48.962;9.182;2023-03-13T01:22:32;10.40;99.90
19680;DHT22;9989;48.962;9.182;2023-03-13T01:24:57;10.40;99.90
19680;DHT22;9989;48.962;9.182;2023-03-13T01:27:23;10.40;99.90
19680;DHT22;9989;48.962;9.182;2023-03-13T01:29:48;10.40;99.90
19680;DHT22;9989;48.962;9.182;2023-03-13T01:32:14;10.40;99.90
19680;DHT22;9989;48.962;9.182;2023-03-13T01:34:39;10.40;99.90
19680;DHT22;9989;48.962;9.182;2023-03-13T01:37:05;10.40;99.90
19680;DHT22;9989;48.962;9.182;2023-03-13T01:39:30;10.40;99.90
19680;DHT22;9989;48.962;9.182;2023-03-13T01:41:56;10.40;99.90
19680;DHT22;9989;48.962;9.182;2023-03-13T01:44:24;10.50;99.90
19680;DHT22;9989;48.962;9.182;2023-03-13T01:46:50;10.50;99.90
19680;DHT22;9989;48.962;9.182;2023-03-13T01:51:54;10.50;99.90
19680;DHT22;9989;48.962;9.182;2023-03-13T02:02:20;10.50;99.90
19680;DHT22;9989;48.962;9.182;2023-03-13T02:04:52;10.50;99.90
19680;DHT22;9989;48.962;9.182;2023-03-13T02:07:29;10.50;99.90
19680;DHT22;9989;48.962;9.182;2023-03-13T02:09:55;10.50;99.90
19680;DHT22;9989;48.962;9.182;2023-03-13T02:12:28;10.60;99.90
19680;DHT22;9989;48.962;9.182;2023-03-13T02:14:56;10.50;99.90
19680;DHT22;9989;48.962;9.182;2023-03-13T02:17:22;10.60;99.90
19680;DHT22;9989;48.962;9.182;2023-03-13T02:19:49;10.60;99.90
19680;DHT22;9989;48.962;9.182;2023-03-13T02:22:30;10.60;99.90
19680;DHT22;9989;48.962;9.182;2023-03-13T02:27:51;10.60;99.90
19680;DHT22;9989;48.962;9.182;2023-03-13T02:30:19;10.60;99.90
19680;DHT22;9989;48.962;9.182;2023-03-13T02:32:44;10.60;99.90
19680;DHT22;9989;48.962;9.182;2023-03-13T02:35:13;10.50;99.90
19680;DHT22;9989;48.962;9.182;2023-03-13T02:37:41;10.60;99.90
19680;DHT22;9989;48.962;9.182;2023-03-13T02:40:11;10.60;99.90
19680;DHT22;9989;48.962;9.182;2023-03-13T02:42:40;10.60;99.90
19680;DHT22;9989;48.962;9.182;2023-03-13T02:45:07;10.50;99.90
19680;DHT22;9989;48.962;9.182;2023-03-13T02:47:33;10.50;99.90
19680;DHT22;9989;48.962;9.182;2023-03-13T02:49:58;10.50;99.90
19680;DHT22;9989;48.962;9.182;2023-03-13T02:52:30;10.40;99.90
19680;DHT22;9989;48.962;9.182;2023-03-13T02:55:35;10.40;99.90
19680;DHT22;9989;48.962;9.182;2023-03-13T02:58:01;10.40;99.90
19680;DHT22;9989;48.962;9.182;2023-03-13T03:00:26;10.40;99.90
19680;DHT22;9989;48.962;9.182;2023-03-13T03:02:53;10.40;99.90
19680;DHT22;9989;48.962;9.182;2023-03-13T03:05:19;10.50;99.90
19680;DHT22;9989;48.962;9.182;2023-03-13T03:07:44;10.40;99.90
19680;DHT22;9989;48.962;9.182;2023-03-13T03:10:10;10.50;99.90
19680;DHT22;9989;48.962;9.182;2023-03-13T03:12:39;10.50;99.90
19680;DHT22;9989;48.962;9.182;2023-03-13T03:15:05;10.60;99.90
19680;DHT22;9989;48.962;9.182;2023-03-13T03:17:31;10.50;99.90
19680;DHT22;9989;48.962;9.182;2023-03-13T03:19:56;10.50;99.90
19680;DHT22;9989;48.962;9.182;2023-03-13T03:22:22;10.60;99.90
19680;DHT22;9989;48.962;9.182;2023-03-13T03:24:47;10.50;99.90
19680;DHT22;9989;48.962;9.182;2023-03-13T03:27:13;10.60;99.90
19680;DHT22;9989;48.962;9.182;2023-03-13T03:29:39;10.60;99.90
19680;DHT22;9989;48.962;9.182;2023-03-13T03:32:04;10.70;99.90
19680;DHT22;9989;48.962;9.182;2023-03-13T03:34:30;10.70;99.90
19680;DHT22;9989;48.962;9.182;2023-03-13T03:36:56;10.70;99.90
19680;DHT22;9989;48.962;9.182;2023-03-13T03:39:21;10.80;99.90
19680;DHT22;9989;48.962;9.182;2023-03-13T03:41:47;10.80;99.90
19680;DHT22;9989;48.962;9.182;2023-03-13T03:44:12;10.80;99.90
19680;DHT22;9989;48.962;9.182;2023-03-13T03:46:38;10.90;99.90
19680;DHT22;9989;48.962;9.182;2023-03-13T03:49:04;10.80;99.90
19680;DHT22;9989;48.962;9.182;2023-03-13T03:51:29;10.80;99.90
19680;DHT22;9989;48.962;9.182;2023-03-13T03:53:55;10.90;99.90
19680;DHT22;9989;48.962;9.182;2023-03-13T03:56:20;10.90;99.90
19680;DHT22;9989;48.962;9.182;2023-03-13T03:58:46;10.90;99.90
19680;DHT22;9989;48.962;9.182;2023-03-13T04:01:11;10.90;99.90
19680;DHT22;9989;48.962;9.182;2023-03-13T04:03:37;10.90;99.90
19680;DHT22;9989;48.962;9.182;2023-03-13T04:06:03;10.90;99.90
19680;DHT22;9989;48.962;9.182;2023-03-13T04:08:28;10.90;99.90
19680;DHT22;9989;48.962;9.182;2023-03-13T04:10:54;10.90;99.90
19680;DHT22;9989;48.962;9.182;2023-03-13T04:13:19;10.90;99.90
19680;DHT22;9989;48.962;9.182;2023-03-13T04:15:45;10.90;99.90
19680;DHT22;9989;48.962;9.182;2023-03-13T04:18:11;10.90;99.90
19680;DHT22;9989;48.962;9.182;2023-03-13T04:20:37;10.90;99.90
19680;DHT22;9989;48.962;9.182;2023-03-13T04:23:02;10.90;99.90
19680;DHT22;9989;48.962;9.182;2023-03-13T04:25:28;10.90;99.90
19680;DHT22;9989;48.962;9.182;2023-03-13T04:27:53;10.90;99.90
19680;DHT22;9989;48.962;9.182;2023-03-13T04:30:19;10.90;99.90
19680;DHT22;9989;48.962;9.182;2023-03-13T04:32:45;10.90;99.90
19680;DHT22;9989;48.962;9.182;2023-03-13T04:35:10;10.90;99.90
19680;DHT22;9989;48.962;9.182;2023-03-13T04:37:36;10.90;99.90
19680;DHT22;9989;48.962;9.182;2023-03-13T04:40:02;10.90;99.90
19680;DHT22;9989;48.962;9.182;2023-03-13T04:42:28;10.80;99.90
19680;DHT22;9989;48.962;9.182;2023-03-13T04:44:53;10.80;99.90
19680;DHT22;9989;48.962;9.182;2023-03-13T04:47:19;10.80;99.90
19680;DHT22;9989;48.962;9.182;2023-03-13T04:49:44;10.80;99.90
19680;DHT22;9989;48.962;9.182;2023-03-13T04:52:10;10.80;99.90
19680;DHT22;9989;48.962;9.182;2023-03-13T04:54:35;10.80;99.90
19680;DHT22;9989;48.962;9.182;2023-03-13T04:57:01;10.90;99.90
19680;DHT22;9989;48.962;9.182;2023-03-13T04:59:27;10.80;99.90
19680;DHT22;9989;48.962;9.182;2023-03-13T05:01:52;10.80;99.90
19680;DHT22;9989;48.962;9.182;2023-03-13T05:04:18;10.90;99.90
19680;DHT22;9989;48.962;9.182;2023-03-13T05:06:44;11.00;99.90
19680;DHT22;9989;48.962;9.182;2023-03-13T05:09:09;11.20;99.90
19680;DHT22;9989;48.962;9.182;2023-03-13T05:11:35;11.50;99.90
19680;DHT22;9989;48.962;9.182;2023-03-13T05:14:01;11.70;99.90
19680;DHT22;9989;48.962;9.182;2023-03-13T05:16:26;11.80;99.90
19680;DHT22;9989;48.962;9.182;2023-03-13T05:18:52;12.00;99.90
19680;DHT22;9989;48.962;9.182;2023-03-13T05:21:17;12.10;99.90
19680;DHT22;9989;48.962;9.182;2023-03-13T05:23:43;12.20;99.90
19680;DHT22;9989;48.962;9.182;2023-03-13T05:26:09;12.20;99.90
19680;DHT22;9989;48.962;9.182;2023-03-13T05:28:34;12.20;99.90
19680;DHT22;9989;48.962;9.182;2023-03-13T05:31:00;12.20;99.90
19680;DHT22;9989;48.962;9.182;2023-03-13T05:33:25;12.30;99.90
19680;DHT22;9989;48.962;9.182;2023-03-13T05:35:51;12.30;99.90
19680;DHT22;9989;48.962;9.182;2023-03-13T05:38:16;12.40;99.90
19680;DHT22;9989;48.962;9.182;2023-03-13T05:40:42;12.40;99.90
19680;DHT22;9989;48.962;9.182;2023-03-13T05:43:08;12.40;99.90
19680;DHT22;9989;48.962;9.182;2023-03-13T05:45:33;12.50;99.90
19680;DHT22;9989;48.962;9.182;2023-03-13T05:47:59;12.50;99.90
19680;DHT22;9989;48.962;9.182;2023-03-13T05:50:25;12.50;99.90
19680;DHT22;9989;48.962;9.182;2023-03-13T05:52:51;12.50;99.90
19680;DHT22;9989;48.962;9.182;2023-03-13T05:55:17;12.50;99.90
19680;DHT22;9989;48.962;9.182;2023-03-13T05:57:47;12.50;99.90
19680;DHT22;9989;48.962;9.182;2023-03-13T06:00:14;12.40;99.90
19680;DHT22;9989;48.962;9.182;2023-03-13T06:02:41;12.40;99.90
19680;DHT22;9989;48.962;9.182;2023-03-13T06:05:07;12.50;99.90
19680;DHT22;9989;48.962;9.182;2023-03-13T06:07:33;12.50;99.90
19680;DHT22;9989;48.962;9.182;2023-03-13T06:09:59;12.50;99.90
19680;DHT22;9989;48.962;9.182;2023-03-13T06:12:24;12.50;99.90
19680;DHT22;9989;48.962;9.182;2023-03-13T06:14:50;12.60;99.90
19680;DHT22;9989;48.962;9.182;2023-03-13T06:17:16;12.50;99.90
19680;DHT22;9989;48.962;9.182;2023-03-13T06:19:41;12.50;99.90
19680;DHT22;9989;48.962;9.182;2023-03-13T06:22:07;12.50;99.90
19680;DHT22;9989;48.962;9.182;2023-03-13T06:24:33;12.60;99.90
19680;DHT22;9989;48.962;9.182;2023-03-13T06:26:58;12.60;99.90
19680;DHT22;9989;48.962;9.182;2023-03-13T06:29:24;12.60;99.90
19680;DHT22;9989;48.962;9.182;2023-03-13T06:31:50;12.60;99.90
19680;DHT22;9989;48.962;9.182;2023-03-13T06:34:16;12.60;99.90
19680;DHT22;9989;48.962;9.182;2023-03-13T06:36:43;12.70;99.90
19680;DHT22;9989;48.962;9.182;2023-03-13T06:39:10;12.70;99.90
19680;DHT22;9989;48.962;9.182;2023-03-13T06:41:35;12.80;99.90
19680;DHT22;9989;48.962;9.182;2023-03-13T06:44:01;12.80;99.90
19680;DHT22;9989;48.962;9.182;2023-03-13T06:46:27;12.80;99.90
19680;DHT22;9989;48.962;9.182;2023-03-13T06:48:53;12.90;99.90
19680;DHT22;9989;48.962;9.182;2023-03-13T06:51:20;12.90;99.90
19680;DHT22;9989;48.962;9.182;2023-03-13T06:53:47;12.90;99.90
19680;DHT22;9989;48.962;9.182;2023-03-13T06:56:13;12.90;99.90
19680;DHT22;9989;48.962;9.182;2023-03-13T06:58:39;12.90;99.90
19680;DHT22;9989;48.962;9.182;2023-03-13T07:01:15;13.00;99.90
19680;DHT22;9989;48.962;9.182;2023-03-13T07:03:41;13.00;99.90
19680;DHT22;9989;48.962;9.182;2023-03-13T07:06:08;13.00;99.90
19680;DHT22;9989;48.962;9.182;2023-03-13T07:08:35;13.00;99.90
19680;DHT22;9989;48.962;9.182;2023-03-13T07:11:02;13.00;99.90
19680;DHT22;9989;48.962;9.182;2023-03-13T07:13:29;13.10;99.90
19680;DHT22;9989;48.962;9.182;2023-03-13T07:15:54;13.00;99.90
19680;DHT22;9989;48.962;9.182;2023-03-13T07:18:21;13.10;99.90
19680;DHT22;9989;48.962;9.182;2023-03-13T07:20:55;13.10;99.90
19680;DHT22;9989;48.962;9.182;2023-03-13T07:23:21;13.10;99.90
19680;DHT22;9989;48.962;9.182;2023-03-13T07:25:58;13.10;99.90
19680;DHT22;9989;48.962;9.182;2023-03-13T07:28:25;13.10;99.90
19680;DHT22;9989;48.962;9.182;2023-03-13T07:30:51;13.10;99.90
19680;DHT22;9989;48.962;9.182;2023-03-13T07:33:18;13.10;99.90
19680;DHT22;9989;48.962;9.182;2023-03-13T07:35:50;13.10;99.90
19680;DHT22;9989;48.962;9.182;2023-03-13T07:38:17;13.10;99.90
19680;DHT22;9989;48.962;9.182;2023-03-13T07:40:50;13.10;99.90
19680;DHT22;9989;48.962;9.182;2023-03-13T07:43:16;13.10;99.90
19680;DHT22;9989;48.962;9.182;2023-03-13T07:45:58;13.20;99.90
19680;DHT22;9989;48.962;9.182;2023-03-13T07:48:28;13.20;99.90
19680;DHT22;9989;48.962;9.182;2023-03-13T07:50:54;13.20;99.90
19680;DHT22;9989;48.962;9.182;2023-03-13T07:53:20;13.20;99.90
19680;DHT22;9989;48.962;9.182;2023-03-13T07:56:02;13.20;99.90
19680;DHT22;9989;48.962;9.182;2023-03-13T07:58:33;13.20;99.90
19680;DHT22;9989;48.962;9.182;2023-03-13T08:00:59;13.20;99.90
19680;DHT22;9989;48.962;9.182;2023-03-13T08:03:26;13.20;99.90
19680;DHT22;9989;48.962;9.182;2023-03-13T08:06:02;13.20;99.90
19680;DHT22;9989;48.962;9.182;2023-03-13T08:08:28;13.30;99.90
19680;DHT22;9989;48.962;9.182;2023-03-13T08:11:03;13.40;99.90
19680;DHT22;9989;48.962;9.182;2023-03-13T08:13:29;13.50;99.90
19680;DHT22;9989;48.962;9.182;2023-03-13T08:18:27;13.60;99.90
19680;DHT22;9989;48.962;9.182;2023-03-13T08:20:53;13.80;99.90
19680;DHT22;9989;48.962;9.182;2023-03-13T08:23:18;13.80;99.90
19680;DHT22;9989;48.962;9.182;2023-03-13T08:25:44;14.00;99.90
19680;DHT22;9989;48.962;9.182;2023-03-13T08:28:09;14.00;99.90
19680;DHT22;9989;48.962;9.182;2023-03-13T08:30:35;14.10;99.90
19680;DHT22;9989;48.962;9.182;2023-03-13T08:33:01;14.20;99.90
19680;DHT22;9989;48.962;9.182;2023-03-13T08:35:29;14.20;99.90
19680;DHT22;9989;48.962;9.182;2023-03-13T08:37:54;14.40;99.90
19680;DHT22;9989;48.962;9.182;2023-03-13T08:40:20;14.40;99.90
19680;DHT22;9989;48.962;9.182;2023-03-13T08:42:45;14.50;99.90
19680;DHT22;9989;48.962;9.182;2023-03-13T08:45:11;14.70;99.90
19680;DHT22;9989;48.962;9.182;2023-03-13T08:47:37;14.80;99.90
19680;DHT22;9989;48.962;9.182;2023-03-13T08:50:03;14.80;99.90
19680;DHT22;9989;48.962;9.182;2023-03-13T08:52:28;14.90;99.90
19680;DHT22;9989;48.962;9.182;2023-03-13T08:54:54;14.90;99.90
19680;DHT22;9989;48.962;9.182;2023-03-13T08:57:19;14.90;99.90
19680;DHT22;9989;48.962;9.182;2023-03-13T08:59:46;14.90;99.90
19680;DHT22;9989;48.962;9.182;2023-03-13T09:02:11;15.00;99.90
19680;DHT22;9989;48.962;9.182;2023-03-13T09:04:43;15.00;99.90
19680;DHT22;9989;48.962;9.182;2023-03-13T09:07:08;15.00;99.90
19680;DHT22;9989;48.962;9.182;2023-03-13T09:09:34;15.00;99.90
19680;DHT22;9989;48.962;9.182;2023-03-13T09:11:59;15.00;99.90
19680;DHT22;9989;48.962;9.182;2023-03-13T09:14:25;15.10;99.90
19680;DHT22;9989;48.962;9.182;2023-03-13T09:16:50;15.10;99.90
19680;DHT22;9989;48.962;9.182;2023-03-13T09:19:16;15.10;99.90
19680;DHT22;9989;48.962;9.182;2023-03-13T09:21:42;15.10;99.90
19680;DHT22;9989;48.962;9.182;2023-03-13T09:24:07;15.20;99.90
19680;DHT22;9989;48.962;9.182;2023-03-13T09:26:33;15.30;99.90
19680;DHT22;9989;48.962;9.182;2023-03-13T09:28:59;15.40;99.90
19680;DHT22;9989;48.962;9.182;2023-03-13T09:31:26;15.60;99.90
19680;DHT22;9989;48.962;9.182;2023-03-13T09:33:52;15.80;99.90
19680;DHT22;9989;48.962;9.182;2023-03-13T09:36:19;15.80;99.90
19680;DHT22;9989;48.962;9.182;2023-03-13T09:38:50;15.80;99.90
19680;DHT22;9989;48.962;9.182;2023-03-13T09:49:00;15.90;99.90
19680;DHT22;9989;48.962;9.182;2023-03-13T09:51:28;16.00;99.90
19680;DHT22;9989;48.962;9.182;2023-03-13T09:53:59;16.50;99.90
19680;DHT22;9989;48.962;9.182;2023-03-13T09:56:38;17.00;99.90
19680;DHT22;9989;48.962;9.182;2023-03-13T09:59:14;17.30;99.90
19680;DHT22;9989;48.962;9.182;2023-03-13T12:05:52;28.60;59.50
19680;DHT22;9989;48.962;9.182;2023-03-13T12:08:35;28.70;59.40
19680;DHT22;9989;48.962;9.182;2023-03-13T12:11:17;28.80;58.00
19680;DHT22;9989;48.962;9.182;2023-03-13T12:13:54;28.00;58.30
19680;DHT22;9989;48.962;9.182;2023-03-13T12:16:36;27.80;59.30
19680;DHT22;9989;48.962;9.182;2023-03-13T12:19:04;27.90;59.40
19680;DHT22;9989;48.962;9.182;2023-03-13T12:21:40;27.80;59.30
19680;DHT22;9989;48.962;9.182;2023-03-13T12:26:54;28.30;58.10
19680;DHT22;9989;48.962;9.182;2023-03-13T12:29:38;28.90;57.50
19680;DHT22;9989;48.962;9.182;2023-03-13T12:32:15;29.40;56.40
19680;DHT22;9989;48.962;9.182;2023-03-13T12:37:44;28.30;57.30
19680;DHT22;9989;48.962;9.182;2023-03-13T12:45:22;28.50;58.10
19680;DHT22;9989;48.962;9.182;2023-03-13T12:50:33;28.00;57.10
19680;DHT22;9989;48.962;9.182;2023-03-13T12:56:55;28.80;56.80
19680;DHT22;9989;48.962;9.182;2023-03-13T13:01:49;27.90;56.70
19680;DHT22;9989;48.962;9.182;2023-03-13T13:04:26;27.70;57.10
19680;DHT22;9989;48.962;9.182;2023-03-13T13:07:17;27.00;57.70
19680;DHT22;9989;48.962;9.182;2023-03-13T13:12:45;26.00;59.80
19680;DHT22;9989;48.962;9.182;2023-03-13T13:15:15;25.30;60.90
19680;DHT22;9989;48.962;9.182;2023-03-13T13:17:58;25.00;62.20
19680;DHT22;9989;48.962;9.182;2023-03-13T13:20:47;24.50;63.00
19680;DHT22;9989;48.962;9.182;2023-03-13T13:23:28;24.10;64.60
19680;DHT22;9989;48.962;9.182;2023-03-13T13:28:55;24.00;66.20
19680;DHT22;9989;48.962;9.182;2023-03-13T13:37:00;23.50;67.20
19680;DHT22;9989;48.962;9.182;2023-03-13T13:39:43;23.40;67.50
19680;DHT22;9989;48.962;9.182;2023-03-13T13:47:45;24.10;67.30
19680;DHT22;9989;48.962;9.182;2023-03-13T13:50:22;24.40;66.60
19680;DHT22;9989;48.962;9.182;2023-03-13T13:52:49;24.60;66.90
19680;DHT22;9989;48.962;9.182;2023-03-13T13:55:31;24.50;66.00
19680;DHT22;9989;48.962;9.182;2023-03-13T13:58:21;24.40;66.50
19680;DHT22;9989;48.962;9.182;2023-03-13T14:01:03;24.30;66.50
19680;DHT22;9989;48.962;9.182;2023-03-13T14:03:38;24.10;66.40
19680;DHT22;9989;48.962;9.182;2023-03-13T14:06:29;24.00;66.90
19680;DHT22;9989;48.962;9.182;2023-03-13T14:09:01;23.70;68.10
19680;DHT22;9989;48.962;9.182;2023-03-13T14:11:37;23.80;68.70
19680;DHT22;9989;48.962;9.182;2023-03-13T14:14:10;24.40;67.10
19680;DHT22;9989;48.962;9.182;2023-03-13T14:16:37;25.20;64.60
19680;DHT22;9989;48.962;9.182;2023-03-13T14:19:03;25.80;62.50
19680;DHT22;9989;48.962;9.182;2023-03-13T14:21:28;26.50;60.30
19680;DHT22;9989;48.962;9.182;2023-03-13T14:23:54;26.40;59.30
19680;DHT22;9989;48.962;9.182;2023-03-13T14:28:58;25.40;59.80
19680;DHT22;9989;48.962;9.182;2023-03-13T14:31:36;25.10;60.80
19680;DHT22;9989;48.962;9.182;2023-03-13T14:34:04;25.20;60.50
19680;DHT22;9989;48.962;9.182;2023-03-13T14:36:45;25.40;60.60
19680;DHT22;9989;48.962;9.182;2023-03-13T14:39:20;26.00;59.10
19680;DHT22;9989;48.962;9.182;2023-03-13T14:41:47;26.30;58.50
19680;DHT22;9989;48.962;9.182;2023-03-13T14:44:17;26.70;57.90
19680;DHT22;9989;48.962;9.182;2023-03-13T14:46:45;27.10;57.20
19680;DHT22;9989;48.962;9.182;2023-03-13T14:49:19;27.30;56.20
19680;DHT22;9989;48.962;9.182;2023-03-13T14:51:49;27.60;56.30
19680;DHT22;9989;48.962;9.182;2023-03-13T14:54:33;27.70;55.80
19680;DHT22;9989;48.962;9.182;2023-03-13T14:57:13;28.20;55.60
19680;DHT22;9989;48.962;9.182;2023-03-13T14:59:39;28.70;54.90
19680;DHT22;9989;48.962;9.182;2023-03-13T15:02:18;29.40;53.80
19680;DHT22;9989;48.962;9.182;2023-03-13T15:07:16;30.30;51.80
19680;DHT22;9989;48.962;9.182;2023-03-13T15:09:44;30.40;51.20
19680;DHT22;9989;48.962;9.182;2023-03-13T15:12:22;30.30;51.60
19680;DHT22;9989;48.962;9.182;2023-03-13T15:14:49;30.90;51.30
19680;DHT22;9989;48.962;9.182;2023-03-13T15:17:21;31.20;51.30
19680;DHT22;9989;48.962;9.182;2023-03-13T15:19:55;31.40;50.20
19680;DHT22;9989;48.962;9.182;2023-03-13T15:24:50;31.00;49.50
19680;DHT22;9989;48.962;9.182;2023-03-13T15:27:21;30.40;51.20
19680;DHT22;9989;48.962;9.182;2023-03-13T15:29:47;30.20;51.10
19680;DHT22;9989;48.962;9.182;2023-03-13T15:32:23;29.80;51.20
19680;DHT22;9989;48.962;9.182;2023-03-13T15:34:50;29.30;51.90
19680;DHT22;9989;48.962;9.182;2023-03-13T15:37:15;29.40;52.10
19680;DHT22;9989;48.962;9.182;2023-03-13T15:39:41;29.50;52.20
19680;DHT22;9989;48.962;9.182;2023-03-13T15:42:10;28.70;52.50
19680;DHT22;9989;48.962;9.182;2023-03-13T15:44:36;27.80;53.60
19680;DHT22;9989;48.962;9.182;2023-03-13T15:47:02;27.00;55.50
19680;DHT22;9989;48.962;9.182;2023-03-13T15:49:28;26.60;56.70
19680;DHT22;9989;48.962;9.182;2023-03-13T15:51:53;26.40;57.00
19680;DHT22;9989;48.962;9.182;2023-03-13T15:54:19;26.40;56.90
19680;DHT22;9989;48.962;9.182;2023-03-13T15:56:45;26.20;57.20
19680;DHT22;9989;48.962;9.182;2023-03-13T15:59:13;25.70;57.60
19680;DHT22;9989;48.962;9.182;2023-03-13T16:01:40;25.50;58.60
19680;DHT22;9989;48.962;9.182;2023-03-13T16:04:05;25.80;58.30
19680;DHT22;9989;48.962;9.182;2023-03-13T16:06:31;26.70;57.50
19680;DHT22;9989;48.962;9.182;2023-03-13T16:09:02;27.60;55.80
19680;DHT22;9989;48.962;9.182;2023-03-13T16:11:30;28.50;54.20
19680;DHT22;9989;48.962;9.182;2023-03-13T16:13:56;28.60;53.50
19680;DHT22;9989;48.962;9.182;2023-03-13T16:16:30;28.70;53.60
19680;DHT22;9989;48.962;9.182;2023-03-13T16:18:58;28.30;53.70
19680;DHT22;9989;48.962;9.182;2023-03-13T16:21:30;27.80;54.00
19680;DHT22;9989;48.962;9.182;2023-03-13T16:23:55;26.90;55.70
19680;DHT22;9989;48.962;9.182;2023-03-13T16:26:24;26.00;56.60
19680;DHT22;9989;48.962;9.182;2023-03-13T16:28:50;25.20;58.20
19680;DHT22;9989;48.962;9.182;2023-03-13T16:31:27;24.50;59.80
19680;DHT22;9989;48.962;9.182;2023-03-13T16:33:54;23.90;61.70
19680;DHT22;9989;48.962;9.182;2023-03-13T16:36:23;23.50;63.10
19680;DHT22;9989;48.962;9.182;2023-03-13T16:38:49;23.10;64.30
19680;DHT22;9989;48.962;9.182;2023-03-13T16:41:17;22.80;65.30
19680;DHT22;9989;48.962;9.182;2023-03-13T16:43:43;22.50;66.40
19680;DHT22;9989;48.962;9.182;2023-03-13T16:46:16;22.20;66.80
19680;DHT22;9989;48.962;9.182;2023-03-13T16:48:42;21.90;68.10
19680;DHT22;9989;48.962;9.182;2023-03-13T16:51:15;21.80;68.90
19680;DHT22;9989;48.962;9.182;2023-03-13T16:53:42;21.60;69.60
19680;DHT22;9989;48.962;9.182;2023-03-13T16:56:25;21.50;70.60
19680;DHT22;9989;48.962;9.182;2023-03-13T16:58:53;21.40;71.10
19680;DHT22;9989;48.962;9.182;2023-03-13T17:01:20;21.30;71.40
19680;DHT22;9989;48.962;9.182;2023-03-13T17:03:46;21.20;71.70
19680;DHT22;9989;48.962;9.182;2023-03-13T17:06:18;21.10;72.00
19680;DHT22;9989;48.962;9.182;2023-03-13T17:08:44;21.00;72.20
19680;DHT22;9989;48.962;9.182;2023-03-13T17:11:11;21.00;72.80
19680;DHT22;9989;48.962;9.182;2023-03-13T17:13:40;20.90;73.10
19680;DHT22;9989;48.962;9.182;2023-03-13T17:16:19;20.90;73.60
19680;DHT22;9989;48.962;9.182;2023-03-13T17:18:47;20.80;73.90
19680;DHT22;9989;48.962;9.182;2023-03-13T17:21:22;20.70;74.00
19680;DHT22;9989;48.962;9.182;2023-03-13T17:23:48;20.70;74.50
19680;DHT22;9989;48.962;9.182;2023-03-13T17:28:48;20.60;75.10
19680;DHT22;9989;48.962;9.182;2023-03-13T17:31:15;20.50;75.30
19680;DHT22;9989;48.962;9.182;2023-03-13T17:33:40;20.40;75.90
19680;DHT22;9989;48.962;9.182;2023-03-13T17:36:13;20.30;76.40
19680;DHT22;9989;48.962;9.182;2023-03-13T17:38:39;20.20;77.00
19680;DHT22;9989;48.962;9.182;2023-03-13T17:41:05;20.10;77.60
19680;DHT22;9989;48.962;9.182;2023-03-13T17:43:30;20.10;78.10
19680;DHT22;9989;48.962;9.182;2023-03-13T17:45:56;20.00;78.70
19680;DHT22;9989;48.962;9.182;2023-03-13T17:48:24;19.90;79.20
19680;DHT22;9989;48.962;9.182;2023-03-13T17:50:52;19.80;79.50
19680;DHT22;9989;48.962;9.182;2023-03-13T17:53:17;19.80;79.80
19680;DHT22;9989;48.962;9.182;2023-03-13T17:55:44;19.80;80.00
19680;DHT22;9989;48.962;9.182;2023-03-13T17:58:10;19.70;80.10
19680;DHT22;9989;48.962;9.182;2023-03-13T18:00:36;19.70;80.30
19680;DHT22;9989;48.962;9.182;2023-03-13T18:03:01;19.70;80.50
19680;DHT22;9989;48.962;9.182;2023-03-13T18:05:27;19.70;81.00
19680;DHT22;9989;48.962;9.182;2023-03-13T18:07:56;19.70;81.10
19680;DHT22;9989;48.962;9.182;2023-03-13T18:10:26;19.60;81.50
19680;DHT22;9989;48.962;9.182;2023-03-13T18:12:52;19.40;82.60
19680;DHT22;9989;48.962;9.182;2023-03-13T18:15:23;19.10;83.40
19680;DHT22;9989;48.962;9.182;2023-03-13T18:17:49;18.80;85.10
19680;DHT22;9989;48.962;9.182;2023-03-13T18:20:21;18.50;87.10
19680;DHT22;9989;48.962;9.182;2023-03-13T18:22:47;18.30;88.70
19680;DHT22;9989;48.962;9.182;2023-03-13T18:25:13;18.00;90.10
19680;DHT22;9989;48.962;9.182;2023-03-13T18:27:39;17.80;91.20
19680;DHT22;9989;48.962;9.182;2023-03-13T18:30:17;17.60;91.90
19680;DHT22;9989;48.962;9.182;2023-03-13T18:32:43;17.40;93.00
19680;DHT22;9989;48.962;9.182;2023-03-13T18:35:09;17.20;94.50
19680;DHT22;9989;48.962;9.182;2023-03-13T18:37:35;17.00;95.70
19680;DHT22;9989;48.962;9.182;2023-03-13T18:40:00;16.80;97.60
19680;DHT22;9989;48.962;9.182;2023-03-13T18:42:26;16.60;99.60
19680;DHT22;9989;48.962;9.182;2023-03-13T18:44:52;16.30;99.90
19680;DHT22;9989;48.962;9.182;2023-03-13T18:47:20;16.20;99.90
19680;DHT22;9989;48.962;9.182;2023-03-13T18:49:47;16.00;99.90
19680;DHT22;9989;48.962;9.182;2023-03-13T18:52:13;15.80;99.90
19680;DHT22;9989;48.962;9.182;2023-03-13T18:54:39;15.60;99.90
19680;DHT22;9989;48.962;9.182;2023-03-13T18:57:16;15.50;99.90
19680;DHT22;9989;48.962;9.182;2023-03-13T18:59:42;15.30;99.90
19680;DHT22;9989;48.962;9.182;2023-03-13T19:02:17;15.20;99.90
19680;DHT22;9989;48.962;9.182;2023-03-13T19:04:43;15.10;99.90
19680;DHT22;9989;48.962;9.182;2023-03-13T19:07:23;15.10;99.90
19680;DHT22;9989;48.962;9.182;2023-03-13T19:09:50;15.10;99.90
19680;DHT22;9989;48.962;9.182;2023-03-13T19:12:16;15.00;99.90